Terminal Aerodrome Forecast
Issued by NWS

Home | Current Version | Previous Version | Text Only | Print | Product List | Glossary On
Versions: 1 2 3 4 5 6 7 8 9 10 11 12 13 14 15 16
067
FTUS41 KBTV 050531
TAFMPV
TAF
KMPV 050531Z 0506/0606 00000KT 4SM BR BKN002 OVC007
     FM051100 00000KT P6SM SCT003 OVC008
     FM051400 VRB05KT P6SM OVC018
     FM051800 02008KT P6SM VCSH OVC025
     FM052100 01008KT P6SM VCSH OVC035
     FM060000 35004KT P6SM VCSH OVC035=

USA.gov is the U.S. government's official web portal to all federal, state and local government web resources and services.